Time;durP1;ratioP1;P1;durP2;ratioP2;P2;SDS_P1;SDS_P2;PMS_P1;PMS_P2;Temp;Humidity;BMP_temperature;BMP_pressure;BME280_temperature;BME280_humidity;BME280_pressure;Samples;Min_cycle;Max_cycle;Signal;HPM_P1;HPM_P2
2021/05/31 00:00:37;;;;;;;2.43;1.97;;;17.70;60.70;;;;;;5086581;28;20300;-72
2021/05/31 00:03:05;;;;;;;7.73;2.37;;;17.70;60.30;;;;;;5107263;28;20245;-72
2021/05/31 00:05:32;;;;;;;2.80;1.90;;;17.60;60.30;;;;;;5106650;28;20208;-72
2021/05/31 00:08:00;;;;;;;2.63;2.10;;;17.70;60.40;;;;;;5103866;28;20231;-72
2021/05/31 00:10:27;;;;;;;3.83;1.83;;;17.60;60.00;;;;;;5107123;28;20223;-72
2021/05/31 00:12:55;;;;;;;4.40;2.23;;;17.60;59.40;;;;;;5103603;28;20217;-72
2021/05/31 00:15:23;;;;;;;3.17;1.83;;;17.70;59.70;;;;;;5103076;28;20217;-72
2021/05/31 00:17:50;;;;;;;2.27;1.57;;;17.70;58.80;;;;;;5107020;28;20216;-72
2021/05/31 00:20:18;;;;;;;3.40;1.50;;;17.70;58.70;;;;;;5085531;28;20222;-72
2021/05/31 00:22:46;;;;;;;3.77;1.73;;;17.70;58.70;;;;;;5095500;28;20532;-72
2021/05/31 00:25:14;;;;;;;2.33;1.70;;;17.70;58.90;;;;;;5099350;28;20212;-72
2021/05/31 00:27:42;;;;;;;2.17;1.57;;;17.70;58.90;;;;;;5099077;28;20219;-72
2021/05/31 00:30:11;;;;;;;7.53;1.97;;;17.60;59.00;;;;;;5099248;28;20209;-72
2021/05/31 00:32:39;;;;;;;5.13;1.93;;;17.60;58.80;;;;;;5099241;28;20219;-72
2021/05/31 00:35:09;;;;;;;1.73;1.30;;;17.60;59.00;;;;;;5081445;28;20215;-72
2021/05/31 00:37:37;;;;;;;3.07;1.60;;;17.60;58.90;;;;;;5099089;28;20300;-73
2021/05/31 00:40:05;;;;;;;2.80;1.60;;;17.60;58.90;;;;;;5098731;28;20584;-72
2021/05/31 00:42:33;;;;;;;1.50;1.40;;;17.50;58.90;;;;;;5099081;28;20548;-72
2021/05/31 00:45:00;;;;;;;1.70;1.50;;;17.50;58.70;;;;;;5094893;28;20216;-72
2021/05/31 00:47:28;;;;;;;2.23;1.60;;;17.40;58.70;;;;;;5102207;28;20680;-72
2021/05/31 00:49:57;;;;;;;2.50;1.80;;;17.40;58.90;;;;;;5084786;28;20300;-72
2021/05/31 00:52:25;;;;;;;4.70;1.50;;;17.40;59.10;;;;;;5084746;28;20217;-72
2021/05/31 00:54:53;;;;;;;2.20;1.63;;;17.30;59.10;;;;;;5101985;28;20211;-72
2021/05/31 00:57:20;;;;;;;2.87;1.70;;;17.30;59.30;;;;;;5105670;28;20228;-72
2021/05/31 00:59:47;;;;;;;1.60;1.50;;;17.20;59.70;;;;;;5102738;28;20240;-72
2021/05/31 01:02:14;;;;;;;8.20;2.03;;;17.20;59.90;;;;;;5087910;28;20242;-72
2021/05/31 01:04:42;;;;;;;5.37;1.90;;;17.20;60.00;;;;;;5102058;28;20204;-72
2021/05/31 01:07:20;;;;;;;8.97;1.70;;;17.10;60.10;;;;;;5088363;28;20250;-72
2021/05/31 01:10:05;;;;;;;7.60;1.80;;;17.00;60.50;;;;;;5103129;28;20220;-72
2021/05/31 01:12:57;;;;;;;2.53;1.67;;;17.00;61.40;;;;;;5088782;28;20212;-72
2021/05/31 01:15:43;;;;;;;2.47;1.40;;;16.90;61.20;;;;;;5099272;28;20236;-72
2021/05/31 01:18:20;;;;;;;3.93;1.77;;;16.80;60.90;;;;;;5098313;28;20219;-72
2021/05/31 01:21:35;;;;;;;2.10;1.53;;;16.70;61.10;;;;;;5105862;28;20219;-72
2021/05/31 01:24:38;;;;;;;2.00;1.60;;;16.60;61.30;;;;;;5015530;28;20207;-72
2021/05/31 01:27:10;;;;;;;1.77;1.40;;;16.60;61.40;;;;;;5003433;28;20219;-72
2021/05/31 01:29:43;;;;;;;3.73;1.60;;;16.50;61.20;;;;;;5014981;28;20214;-72
2021/05/31 01:32:13;;;;;;;2.87;1.70;;;16.50;61.40;;;;;;5031279;28;20306;-72
2021/05/31 01:34:42;;;;;;;2.80;1.80;;;16.50;61.30;;;;;;5031279;28;20297;-72
2021/05/31 01:37:13;;;;;;;1.50;1.40;;;16.50;61.30;;;;;;5035997;28;20242;-72
2021/05/31 01:39:44;;;;;;;1.50;1.40;;;16.50;61.50;;;;;;5031081;28;20326;-72
2021/05/31 01:42:13;;;;;;;1.70;1.30;;;16.40;61.80;;;;;;5014779;28;20207;-72
2021/05/31 01:44:41;;;;;;;4.83;1.73;;;16.40;62.20;;;;;;5021869;28;20305;-72
2021/05/31 01:47:09;;;;;;;2.00;1.60;;;16.30;62.60;;;;;;5031128;28;20223;-72
2021/05/31 01:49:38;;;;;;;3.23;1.83;;;16.20;62.70;;;;;;5031013;28;20238;-71
2021/05/31 01:52:06;;;;;;;2.57;2.03;;;16.20;63.00;;;;;;5011256;28;20243;-72
2021/05/31 01:54:35;;;;;;;1.93;1.80;;;16.10;63.40;;;;;;5019156;28;20644;-72
2021/05/31 01:57:04;;;;;;;1.83;1.57;;;16.00;63.90;;;;;;5022862;28;20238;-72
2021/05/31 01:59:33;;;;;;;3.27;1.60;;;16.00;64.20;;;;;;5025044;28;20265;-72
2021/05/31 02:02:01;;;;;;;2.87;1.60;;;15.90;64.30;;;;;;5096311;28;20626;-73
2021/05/31 02:04:28;;;;;;;1.50;1.13;;;15.80;64.90;;;;;;5101709;28;20212;-72
2021/05/31 02:06:56;;;;;;;1.60;1.50;;;15.70;65.50;;;;;;5103966;28;20209;-72
2021/05/31 02:09:23;;;;;;;2.17;1.50;;;15.70;66.10;;;;;;5088991;28;20222;-72
2021/05/31 02:12:10;;;;;;;1.90;1.67;;;15.60;66.30;;;;;;5105127;28;20716;-72
2021/05/31 02:14:48;;;;;;;5.33;1.80;;;15.60;66.60;;;;;;5102542;28;20657;-72
2021/05/31 02:17:24;;;;;;;2.20;2.00;;;15.50;66.70;;;;;;5103350;28;20588;-72
2021/05/31 02:20:03;;;;;;;2.97;1.80;;;15.50;66.70;;;;;;5105860;28;20216;-72
2021/05/31 02:22:37;;;;;;;1.53;1.37;;;15.40;66.80;;;;;;5091185;28;20216;-72
2021/05/31 02:25:06;;;;;;;3.63;2.00;;;15.40;67.20;;;;;;5090689;28;20841;-71
2021/05/31 02:27:33;;;;;;;1.80;1.53;;;15.30;67.30;;;;;;5106139;28;20903;-71
2021/05/31 02:30:01;;;;;;;2.37;2.17;;;15.30;67.20;;;;;;5087364;28;20255;-73
2021/05/31 02:32:29;;;;;;;2.33;2.13;;;15.30;67.20;;;;;;5090399;28;20681;-72
2021/05/31 02:34:56;;;;;;;3.13;1.90;;;15.20;67.20;;;;;;5105728;28;20247;-72
2021/05/31 02:37:35;;;;;;;2.73;2.00;;;15.20;67.30;;;;;;5108559;28;20326;-72
2021/05/31 02:40:07;;;;;;;3.87;2.23;;;15.30;67.60;;;;;;5088903;28;20669;-72
2021/05/31 02:42:40;;;;;;;2.07;1.90;;;15.30;67.70;;;;;;5090005;28;20612;-72
2021/05/31 02:45:09;;;;;;;2.57;2.10;;;15.30;67.80;;;;;;5106682;28;20240;-71
2021/05/31 02:47:37;;;;;;;2.80;2.33;;;15.30;68.00;;;;;;5108143;28;20213;-71
2021/05/31 02:50:05;;;;;;;3.40;2.57;;;15.30;68.00;;;;;;5108751;28;20624;-71
2021/05/31 02:52:33;;;;;;;2.20;2.00;;;15.30;68.10;;;;;;5104610;28;20255;-71
2021/05/31 02:55:01;;;;;;;2.43;2.00;;;15.30;68.10;;;;;;5087881;28;20253;-71
2021/05/31 02:57:28;;;;;;;3.00;2.10;;;15.40;68.20;;;;;;5104657;28;20841;-71
2021/05/31 02:59:55;;;;;;;3.07;2.07;;;15.40;68.20;;;;;;5105156;28;20281;-72
2021/05/31 03:02:22;;;;;;;2.00;1.90;;;15.40;68.20;;;;;;5104792;28;20216;-71
2021/05/31 03:04:49;;;;;;;3.27;2.10;;;15.40;68.00;;;;;;5107173;28;20213;-72
2021/05/31 03:07:17;;;;;;;2.50;2.10;;;15.50;67.60;;;;;;5106533;28;20222;-72
2021/05/31 03:09:44;;;;;;;2.40;2.20;;;15.50;67.30;;;;;;5089089;28;20244;-71
2021/05/31 03:12:12;;;;;;;3.43;2.57;;;15.50;67.30;;;;;;5106563;28;20224;-71
2021/05/31 03:14:39;;;;;;;3.17;2.50;;;15.50;67.40;;;;;;5111141;28;20205;-72
2021/05/31 03:17:06;;;;;;;4.23;2.33;;;15.50;67.50;;;;;;5106335;28;20335;-72
2021/05/31 03:19:33;;;;;;;2.47;2.27;;;15.40;67.80;;;;;;5104705;28;20216;-72
2021/05/31 03:22:01;;;;;;;3.03;2.40;;;15.50;68.10;;;;;;5090804;28;20219;-72
2021/05/31 03:24:28;;;;;;;2.80;2.60;;;15.40;68.30;;;;;;5105711;28;20562;-71
2021/05/31 03:26:55;;;;;;;2.50;2.30;;;15.30;68.80;;;;;;5100999;28;20616;-72
2021/05/31 03:29:23;;;;;;;3.03;2.40;;;15.20;69.40;;;;;;5089269;28;20263;-72
2021/05/31 03:31:50;;;;;;;2.90;2.60;;;15.00;70.10;;;;;;5104815;28;20217;-72
2021/05/31 03:34:17;;;;;;;3.37;2.60;;;14.90;70.70;;;;;;5089583;28;20269;-72
2021/05/31 03:36:44;;;;;;;4.13;2.50;;;14.80;71.30;;;;;;5106033;28;20224;-71
2021/05/31 03:39:12;;;;;;;3.70;2.83;;;14.80;72.10;;;;;;5107539;28;20223;-72
2021/05/31 03:41:39;;;;;;;4.27;2.80;;;14.80;72.30;;;;;;5108054;28;20255;-71
2021/05/31 03:44:07;;;;;;;5.60;3.17;;;14.70;72.50;;;;;;5108460;28;20605;-72
2021/05/31 03:46:34;;;;;;;4.13;3.07;;;14.70;72.70;;;;;;5103880;28;20208;-72
2021/05/31 03:49:02;;;;;;;4.53;3.17;;;14.70;72.80;;;;;;5104262;28;20222;-72
2021/05/31 03:51:29;;;;;;;2.90;2.70;;;14.80;73.10;;;;;;5099876;28;20224;-72
2021/05/31 03:53:56;;;;;;;3.10;2.80;;;14.80;73.00;;;;;;5099807;28;20304;-72
2021/05/31 03:56:24;;;;;;;5.27;3.27;;;14.90;72.80;;;;;;5089818;28;20573;-71
2021/05/31 03:58:53;;;;;;;3.60;3.27;;;14.90;72.60;;;;;;5104097;28;20243;-72
2021/05/31 04:01:20;;;;;;;4.27;3.13;;;15.00;72.60;;;;;;5107490;28;20231;-72
2021/05/31 04:03:48;;;;;;;3.13;2.83;;;15.00;72.60;;;;;;5086647;28;20226;-71
2021/05/31 04:06:34;;;;;;;4.13;3.07;;;15.10;72.80;;;;;;5090266;28;20300;-72
2021/05/31 04:11:49;;;;;;;3.37;2.73;;;15.20;73.00;;;;;;5107285;28;20208;-72
2021/05/31 04:14:19;;;;;;;4.70;3.40;;;15.30;73.10;;;;;;5087525;28;20278;-72
2021/05/31 04:16:52;;;;;;;3.40;2.60;;;15.30;73.40;;;;;;5107406;28;20228;-72
2021/05/31 04:19:21;;;;;;;2.73;2.53;;;15.30;73.50;;;;;;5089653;28;20278;-72
2021/05/31 04:21:52;;;;;;;4.13;2.83;;;15.30;73.30;;;;;;5102940;28;20208;-72
2021/05/31 04:24:19;;;;;;;3.17;2.37;;;15.40;73.10;;;;;;5088653;28;20251;-73
2021/05/31 04:26:47;;;;;;;3.80;2.93;;;15.40;72.70;;;;;;5107109;28;20260;-72
2021/05/31 04:29:16;;;;;;;3.60;2.53;;;15.50;72.80;;;;;;5105861;28;20212;-72
2021/05/31 04:31:44;;;;;;;6.87;3.00;;;15.60;72.80;;;;;;5102536;28;20316;-72
2021/05/31 04:34:12;;;;;;;5.00;3.23;;;15.60;72.80;;;;;;5104463;28;20311;-72
2021/05/31 04:36:43;;;;;;;3.70;2.40;;;15.70;73.00;;;;;;5105524;28;20259;-72
2021/05/31 04:39:10;;;;;;;3.27;2.67;;;15.70;73.00;;;;;;5104371;28;20244;-72
2021/05/31 04:41:39;;;;;;;3.07;2.77;;;15.80;73.00;;;;;;5098653;28;20578;-72
2021/05/31 04:44:06;;;;;;;4.10;2.60;;;15.80;73.10;;;;;;5090707;28;20719;-72
2021/05/31 04:46:34;;;;;;;4.53;3.27;;;15.80;73.10;;;;;;5106793;28;20209;-72
2021/05/31 04:49:03;;;;;;;3.50;3.17;;;15.80;72.90;;;;;;5106968;28;20210;-72
2021/05/31 04:51:32;;;;;;;3.83;3.50;;;15.90;73.00;;;;;;5105299;28;20219;-72
2021/05/31 04:53:59;;;;;;;4.33;3.10;;;16.00;73.30;;;;;;5102723;28;20607;-72
2021/05/31 04:56:27;;;;;;;4.67;3.77;;;16.00;73.50;;;;;;5102359;28;20201;-72
2021/05/31 04:58:54;;;;;;;5.67;3.67;;;16.10;73.70;;;;;;5103679;28;20209;-72
2021/05/31 05:01:22;;;;;;;4.47;3.73;;;16.10;73.90;;;;;;5087820;28;20211;-72
2021/05/31 05:03:49;;;;;;;5.60;3.87;;;16.20;74.30;;;;;;5089361;28;20287;-72
2021/05/31 05:06:16;;;;;;;4.50;3.57;;;16.20;74.40;;;;;;5103175;28;20263;-72
2021/05/31 05:08:44;;;;;;;3.60;3.30;;;16.20;74.60;;;;;;5105682;28;20541;-72
2021/05/31 05:11:12;;;;;;;4.33;3.67;;;16.20;74.80;;;;;;5102779;28;20223;-72
2021/05/31 05:13:39;;;;;;;6.30;3.53;;;16.30;75.00;;;;;;5106334;28;20212;-72
2021/05/31 05:16:06;;;;;;;4.37;3.83;;;16.30;75.10;;;;;;5105702;28;20212;-72
2021/05/31 05:18:41;;;;;;;6.50;3.70;;;16.30;75.00;;;;;;5102268;28;20239;-72
2021/05/31 05:21:08;;;;;;;3.77;3.40;;;16.40;75.00;;;;;;5096471;28;20259;-72
2021/05/31 05:23:36;;;;;;;3.90;3.17;;;16.40;74.90;;;;;;5105559;28;20208;-72
2021/05/31 05:26:03;;;;;;;4.30;3.33;;;16.50;74.90;;;;;;5088475;28;20212;-72
2021/05/31 05:28:37;;;;;;;4.63;3.70;;;16.50;75.00;;;;;;5103130;28;20209;-72
2021/05/31 05:31:09;;;;;;;4.67;3.60;;;16.60;75.10;;;;;;5101897;28;20216;-72
2021/05/31 05:33:38;;;;;;;3.93;3.47;;;16.60;75.90;;;;;;5088150;28;20212;-72
2021/05/31 05:37:09;;;;;;;3.93;3.37;;;16.60;75.20;;;;;;5104011;28;20517;-73
2021/05/31 05:41:42;;;;;;;4.17;3.53;;;16.80;75.20;;;;;;5101861;28;20256;-72
2021/05/31 05:44:26;;;;;;;4.27;3.87;;;16.80;74.90;;;;;;5094318;28;20238;-72
2021/05/31 05:49:39;;;;;;;4.17;3.70;;;16.80;75.20;;;;;;5105053;28;20511;-72
2021/05/31 05:52:08;;;;;;;7.50;4.10;;;16.90;75.00;;;;;;5101475;28;20223;-72
2021/05/31 05:54:36;;;;;;;5.67;3.83;;;16.90;75.00;;;;;;5087990;28;20208;-72
2021/05/31 05:57:03;;;;;;;3.93;3.17;;;17.00;75.30;;;;;;5084059;28;20255;-72
2021/05/31 05:59:32;;;;;;;6.57;4.80;;;17.00;75.40;;;;;;5087352;28;20609;-72
2021/05/31 06:02:00;;;;;;;3.97;3.20;;;17.00;75.50;;;;;;5102200;28;20636;-72
2021/05/31 06:04:27;;;;;;;9.23;3.80;;;17.10;75.50;;;;;;5104965;28;20211;-72
2021/05/31 06:06:54;;;;;;;4.57;4.00;;;17.10;75.80;;;;;;5100357;28;20242;-72
2021/05/31 06:09:22;;;;;;;3.93;3.57;;;17.10;76.10;;;;;;5103713;28;20219;-72
2021/05/31 06:11:49;;;;;;;5.97;4.40;;;17.00;76.60;;;;;;5101552;28;20920;-72
2021/05/31 06:14:16;;;;;;;4.53;3.90;;;17.00;77.00;;;;;;5102701;28;20219;-72
2021/05/31 06:16:44;;;;;;;6.10;4.23;;;17.00;77.60;;;;;;5104019;28;20312;-72
2021/05/31 06:19:11;;;;;;;5.00;4.10;;;17.00;77.90;;;;;;5101150;28;20208;-72
2021/05/31 06:21:38;;;;;;;4.40;4.00;;;17.10;78.10;;;;;;5103343;28;20277;-72
2021/05/31 06:24:06;;;;;;;7.63;4.33;;;17.10;78.20;;;;;;5101855;28;20232;-72
2021/05/31 06:26:33;;;;;;;4.40;4.00;;;17.20;78.10;;;;;;5103350;28;20212;-72
2021/05/31 06:29:01;;;;;;;5.40;3.07;;;17.30;78.10;;;;;;5105051;28;20216;-72
2021/05/31 06:31:28;;;;;;;5.97;3.97;;;17.30;77.70;;;;;;5106559;28;20208;-71
2021/05/31 06:33:56;;;;;;;4.30;3.90;;;17.40;77.40;;;;;;5083821;28;20220;-71
2021/05/31 06:36:24;;;;;;;4.10;3.70;;;17.50;77.30;;;;;;5085194;28;20278;-70
2021/05/31 06:38:51;;;;;;;7.47;3.83;;;17.60;77.00;;;;;;5104027;28;20240;-71
2021/05/31 06:41:19;;;;;;;4.60;3.80;;;17.70;76.90;;;;;;5098403;28;20236;-70
2021/05/31 06:43:46;;;;;;;8.27;4.87;;;17.90;76.80;;;;;;5087484;28;20254;-70
2021/05/31 06:46:13;;;;;;;4.30;3.90;;;18.00;76.30;;;;;;5101121;28;20214;-71
2021/05/31 06:48:41;;;;;;;8.87;4.27;;;18.10;76.00;;;;;;5104787;28;20220;-71
2021/05/31 06:51:08;;;;;;;6.27;3.93;;;18.20;75.50;;;;;;5086454;28;20231;-71
2021/05/31 06:53:36;;;;;;;4.67;3.70;;;18.40;75.10;;;;;;5101085;28;20232;-70
2021/05/31 06:56:03;;;;;;;3.80;3.50;;;18.60;74.80;;;;;;5103868;28;20281;-70
2021/05/31 06:58:31;;;;;;;5.40;2.93;;;19.10;73.30;;;;;;5105389;28;20232;-70
2021/05/31 07:00:58;;;;;;;3.13;2.83;;;19.60;70.60;;;;;;5108670;28;20644;-70
2021/05/31 07:03:26;;;;;;;3.13;2.83;;;20.10;68.80;;;;;;5105225;28;20209;-70
2021/05/31 07:05:53;;;;;;;4.50;3.10;;;20.60;66.90;;;;;;5101000;28;20213;-71
2021/05/31 07:08:23;;;;;;;4.57;2.57;;;21.00;65.20;;;;;;5100459;28;20236;-71
2021/05/31 07:10:51;;;;;;;2.60;1.93;;;21.40;63.90;;;;;;5100649;28;20221;-71
2021/05/31 07:13:20;;;;;;;3.60;2.50;;;21.70;61.40;;;;;;5082965;28;20217;-71
2021/05/31 07:15:48;;;;;;;4.70;2.03;;;22.00;59.70;;;;;;5103506;28;20208;-71
2021/05/31 07:18:16;;;;;;;4.53;2.03;;;22.20;58.30;;;;;;5101161;28;20229;-71
2021/05/31 07:20:43;;;;;;;7.93;2.20;;;22.40;57.80;;;;;;5096836;28;20208;-70
2021/05/31 07:23:10;;;;;;;6.03;2.30;;;22.60;56.70;;;;;;5096235;28;20220;-70
2021/05/31 07:25:38;;;;;;;5.00;2.00;;;22.80;54.70;;;;;;5106686;28;20212;-70
2021/05/31 07:28:05;;;;;;;4.30;2.03;;;22.90;54.70;;;;;;5108749;28;20251;-71
2021/05/31 07:30:33;;;;;;;3.67;1.90;;;23.10;54.20;;;;;;5107439;28;20216;-71
2021/05/31 07:33:01;;;;;;;2.73;1.87;;;23.30;53.60;;;;;;5087194;28;20213;-71
2021/05/31 07:35:28;;;;;;;4.43;1.73;;;23.60;53.20;;;;;;5107552;28;20224;-71
2021/05/31 07:37:55;;;;;;;3.03;2.13;;;23.80;52.80;;;;;;5103993;28;20240;-71
2021/05/31 07:40:23;;;;;;;3.23;2.20;;;23.90;50.20;;;;;;5105361;28;20272;-71
2021/05/31 07:42:50;;;;;;;2.93;1.97;;;24.00;50.50;;;;;;5106984;28;20205;-70
2021/05/31 07:45:18;;;;;;;3.87;2.07;;;24.10;50.40;;;;;;5103422;28;20204;-70
2021/05/31 07:47:47;;;;;;;4.13;2.40;;;24.20;49.50;;;;;;5106818;28;20583;-71
2021/05/31 07:50:16;;;;;;;4.80;2.30;;;24.30;49.80;;;;;;5104885;28;20259;-71
2021/05/31 07:52:43;;;;;;;4.20;2.00;;;24.60;49.20;;;;;;5108332;28;20628;-70
2021/05/31 07:55:13;;;;;;;9.80;2.47;;;24.60;48.20;;;;;;5106597;28;20225;-71
2021/05/31 07:57:41;;;;;;;2.80;2.00;;;24.70;47.90;;;;;;5107588;28;20307;-70
2021/05/31 08:00:12;;;;;;;2.70;2.07;;;24.80;47.90;;;;;;5105270;28;20205;-70
2021/05/31 08:02:43;;;;;;;1.97;1.67;;;24.90;47.30;;;;;;5107308;28;20265;-71
2021/05/31 08:05:13;;;;;;;3.83;1.97;;;24.90;47.00;;;;;;5103852;28;20197;-70
2021/05/31 08:07:42;;;;;;;2.47;2.17;;;25.00;46.70;;;;;;5088858;28;20277;-70
2021/05/31 08:10:10;;;;;;;4.40;1.50;;;25.00;46.10;;;;;;5081719;28;20278;-71
2021/05/31 08:12:38;;;;;;;2.87;2.00;;;25.00;46.30;;;;;;5089249;28;20242;-70
2021/05/31 08:15:08;;;;;;;2.10;1.90;;;25.10;46.40;;;;;;5085442;28;20536;-70
2021/05/31 08:17:35;;;;;;;5.17;2.17;;;25.30;45.40;;;;;;5099097;28;20244;-72
2021/05/31 08:20:04;;;;;;;3.10;1.80;;;25.20;46.70;;;;;;5087654;28;20219;-71
2021/05/31 08:22:32;;;;;;;2.10;1.70;;;25.40;45.60;;;;;;5099163;28;20749;-71
2021/05/31 08:25:01;;;;;;;2.27;1.80;;;25.50;45.40;;;;;;5107415;28;20275;-71
2021/05/31 08:27:28;;;;;;;4.47;1.93;;;25.60;45.40;;;;;;5106510;28;20215;-71
2021/05/31 08:29:56;;;;;;;2.97;2.13;;;25.70;45.20;;;;;;5103348;28;20209;-71
2021/05/31 08:32:23;;;;;;;2.07;1.87;;;25.70;44.40;;;;;;5106426;28;20681;-71
2021/05/31 08:34:50;;;;;;;3.63;1.90;;;25.70;43.20;;;;;;5106679;28;20208;-71
2021/05/31 08:37:18;;;;;;;3.33;2.17;;;25.60;43.20;;;;;;5106775;28;20209;-71
2021/05/31 08:39:46;;;;;;;3.17;2.30;;;25.30;44.20;;;;;;5103647;28;20319;-71
2021/05/31 08:42:13;;;;;;;2.97;2.40;;;25.30;44.50;;;;;;5088121;28;20240;-71
2021/05/31 08:44:41;;;;;;;2.53;1.67;;;25.30;43.20;;;;;;5103961;28;20212;-71
2021/05/31 08:47:09;;;;;;;3.47;1.50;;;25.40;42.20;;;;;;5105652;28;20208;-71
2021/05/31 08:49:37;;;;;;;1.77;1.67;;;25.40;42.00;;;;;;5104042;28;20212;-71
2021/05/31 08:52:06;;;;;;;2.27;1.70;;;25.40;41.60;;;;;;5102176;28;20251;-71
2021/05/31 08:54:33;;;;;;;1.90;1.80;;;25.50;41.60;;;;;;5104033;28;20223;-71
2021/05/31 08:57:01;;;;;;;2.13;1.50;;;25.70;41.90;;;;;;5105312;28;20252;-71
2021/05/31 08:59:28;;;;;;;1.80;1.60;;;25.90;40.50;;;;;;5104064;28;20232;-71
2021/05/31 09:01:55;;;;;;;2.67;1.60;;;26.10;41.30;;;;;;5084643;28;20235;-71
2021/05/31 09:04:24;;;;;;;3.23;2.30;;;26.20;39.60;;;;;;5104606;28;20213;-72
2021/05/31 09:06:58;;;;;;;3.67;1.47;;;26.30;40.10;;;;;;5106489;28;20216;-72
2021/05/31 09:09:39;;;;;;;3.63;2.20;;;26.30;40.20;;;;;;5102303;28;20280;-72
2021/05/31 09:12:08;;;;;;;92.50;71.40;;;26.20;39.30;;;;;;5082542;28;20271;-72
2021/05/31 09:14:36;;;;;;;5.20;3.27;;;26.10;41.60;;;;;;5102272;28;20299;-72
2021/05/31 09:17:04;;;;;;;2.20;1.70;;;26.20;41.50;;;;;;5106444;28;20208;-71
2021/05/31 09:19:35;;;;;;;2.10;1.90;;;26.30;40.30;;;;;;5105416;28;20951;-71
2021/05/31 09:22:05;;;;;;;3.30;1.97;;;26.40;40.90;;;;;;5098942;28;20205;-71
2021/05/31 09:24:33;;;;;;;2.43;2.23;;;26.50;41.60;;;;;;5087166;28;20220;-71
2021/05/31 09:27:00;;;;;;;5.00;2.47;;;26.40;40.50;;;;;;5095183;28;20236;-71
2021/05/31 09:29:28;;;;;;;3.77;2.10;;;26.30;41.50;;;;;;5105066;28;20216;-71
2021/05/31 09:32:00;;;;;;;4.33;2.10;;;26.20;39.90;;;;;;5101996;28;20534;-71
2021/05/31 09:34:28;;;;;;;2.30;2.00;;;26.20;41.30;;;;;;5103421;28;20332;-72
2021/05/31 09:37:01;;;;;;;4.60;2.07;;;26.30;40.80;;;;;;5104447;28;20285;-72
2021/05/31 09:39:40;;;;;;;4.50;2.30;;;26.40;40.70;;;;;;5097625;28;20327;-71
2021/05/31 09:42:25;;;;;;;2.87;2.17;;;26.40;39.90;;;;;;5077708;28;20292;-71
2021/05/31 09:45:03;;;;;;;3.00;1.80;;;26.30;40.10;;;;;;5094041;28;20299;-71
2021/05/31 09:47:33;;;;;;;2.87;2.40;;;26.30;39.60;;;;;;5076600;28;20224;-71
2021/05/31 09:50:03;;;;;;;2.60;1.90;;;26.20;40.70;;;;;;5072800;28;20210;-71
2021/05/31 09:52:30;;;;;;;5.00;2.30;;;26.00;40.30;;;;;;5089915;28;20231;-72
2021/05/31 09:54:57;;;;;;;1.67;1.47;;;25.90;40.50;;;;;;5076292;28;20220;-72
2021/05/31 09:57:35;;;;;;;2.60;2.10;;;25.90;40.30;;;;;;5093085;28;20216;-72
2021/05/31 10:00:16;;;;;;;2.00;1.63;;;25.90;40.40;;;;;;5064970;28;20274;-72
2021/05/31 10:08:04;;;;;;;3.03;1.87;;;25.80;40.00;;;;;;5098370;28;20602;-72
2021/05/31 10:10:32;;;;;;;2.70;1.77;;;25.70;41.20;;;;;;5106130;28;20213;-72
2021/05/31 10:13:00;;;;;;;3.80;1.50;;;25.90;40.70;;;;;;5085149;28;20252;-72
2021/05/31 10:15:30;;;;;;;2.63;1.67;;;26.10;39.70;;;;;;5106094;28;20673;-72
2021/05/31 10:17:59;;;;;;;11.80;2.07;;;26.40;38.30;;;;;;5097739;28;20217;-72
2021/05/31 10:20:29;;;;;;;4.60;1.50;;;26.60;39.20;;;;;;5103266;28;20282;-72
2021/05/31 10:23:01;;;;;;;1.60;1.50;;;26.90;38.90;;;;;;5104356;28;20246;-72
2021/05/31 10:25:30;;;;;;;2.83;1.73;;;27.10;36.90;;;;;;5105230;28;20784;-72
2021/05/31 10:28:06;;;;;;;2.80;1.83;;;27.00;38.00;;;;;;5080562;28;20266;-72
2021/05/31 10:31:04;;;;;;;2.00;1.83;;;26.90;38.70;;;;;;5103438;28;20219;-72
2021/05/31 10:33:37;;;;;;;3.03;1.60;;;26.80;38.60;;;;;;5006523;28;20211;-72
2021/05/31 10:36:23;;;;;;;3.73;2.10;;;26.60;38.10;;;;;;4985475;28;20551;-72
2021/05/31 10:38:51;;;;;;;2.17;1.30;;;26.40;40.10;;;;;;5004221;28;20623;-72
2021/05/31 10:41:22;;;;;;;2.40;1.57;;;26.60;38.40;;;;;;5007005;28;20247;-72
2021/05/31 10:43:55;;;;;;;3.73;1.80;;;26.90;37.50;;;;;;4998446;28;20239;-72
2021/05/31 10:46:33;;;;;;;2.23;1.90;;;27.30;37.10;;;;;;5008040;28;20212;-72
2021/05/31 10:49:05;;;;;;;3.60;2.23;;;27.60;36.00;;;;;;4987343;28;20223;-72
2021/05/31 10:51:39;;;;;;;1.90;1.80;;;27.30;36.60;;;;;;4991338;28;20212;-72
2021/05/31 10:54:12;;;;;;;3.53;1.87;;;27.10;36.50;;;;;;5000966;28;20278;-72
2021/05/31 10:56:43;;;;;;;2.23;1.30;;;26.80;34.60;;;;;;5004533;28;20216;-72
2021/05/31 10:59:16;;;;;;;3.23;2.13;;;26.50;36.40;;;;;;5003393;28;20252;-72
2021/05/31 11:01:43;;;;;;;2.20;2.00;;;26.20;36.90;;;;;;4989264;28;20259;-72
2021/05/31 11:04:21;;;;;;;3.70;1.73;;;26.10;38.90;;;;;;5007231;28;20216;-72
2021/05/31 11:06:51;;;;;;;1.77;1.67;;;26.10;38.90;;;;;;5003776;28;20208;-72
2021/05/31 11:09:20;;;;;;;2.37;1.87;;;26.30;38.30;;;;;;5015211;28;20620;-72
2021/05/31 11:11:56;;;;;;;5.33;1.80;;;26.30;37.60;;;;;;5107846;28;20278;-72
2021/05/31 11:14:38;;;;;;;5.23;2.00;;;26.20;39.10;;;;;;5107174;28;20270;-72
2021/05/31 11:17:17;;;;;;;2.33;1.90;;;26.20;39.10;;;;;;5084646;28;20282;-72
2021/05/31 11:19:52;;;;;;;6.00;1.80;;;26.20;39.10;;;;;;5103624;28;20266;-72
2021/05/31 11:22:24;;;;;;;2.83;1.83;;;26.00;39.00;;;;;;5107310;28;20278;-72
2021/05/31 11:25:04;;;;;;;2.13;1.60;;;25.90;39.00;;;;;;5109083;28;20682;-71
2021/05/31 11:27:36;;;;;;;3.43;1.63;;;25.90;39.50;;;;;;5102426;28;20209;-72
2021/05/31 11:30:19;;;;;;;1.93;1.63;;;26.00;39.20;;;;;;5107391;28;20213;-72
2021/05/31 11:32:46;;;;;;;3.20;2.00;;;25.90;37.60;;;;;;5104439;28;20243;-72
2021/05/31 11:35:15;;;;;;;3.47;1.83;;;25.80;38.40;;;;;;5106922;28;20270;-72
2021/05/31 11:38:03;;;;;;;3.00;2.13;;;25.70;38.90;;;;;;5103950;28;20274;-72
2021/05/31 11:40:42;;;;;;;3.93;1.83;;;25.60;38.80;;;;;;5110086;28;20236;-72
2021/05/31 11:43:13;;;;;;;2.50;1.83;;;25.50;40.20;;;;;;5102313;28;20215;-72
2021/05/31 11:45:45;;;;;;;1.60;1.50;;;25.90;40.00;;;;;;5109751;28;20205;-72
2021/05/31 11:48:18;;;;;;;2.70;1.93;;;26.30;39.20;;;;;;5106825;28;20213;-72
2021/05/31 11:50:48;;;;;;;1.70;1.60;;;26.60;38.10;;;;;;5070729;28;20206;-72
2021/05/31 11:53:17;;;;;;;4.30;1.83;;;26.80;39.40;;;;;;5090067;28;20702;-72
2021/05/31 11:55:45;;;;;;;2.40;1.90;;;27.00;39.40;;;;;;5107576;28;20697;-72
2021/05/31 11:58:13;;;;;;;2.13;1.87;;;27.10;39.60;;;;;;5106351;28;20522;-72
2021/05/31 12:00:42;;;;;;;2.97;1.60;;;27.00;38.00;;;;;;5110237;28;20308;-72
2021/05/31 12:03:23;;;;;;;1.67;1.37;;;27.00;38.20;;;;;;5103222;28;20205;-72
2021/05/31 12:05:54;;;;;;;3.20;1.70;;;27.10;37.80;;;;;;5105909;28;20213;-72
2021/05/31 12:08:23;;;;;;;3.00;1.80;;;27.10;38.40;;;;;;5105785;28;20204;-72
2021/05/31 12:10:51;;;;;;;3.70;2.10;;;27.40;37.30;;;;;;5089175;28;20266;-72
2021/05/31 12:13:29;;;;;;;3.03;1.80;;;27.60;37.00;;;;;;5105518;28;20270;-72
2021/05/31 12:15:56;;;;;;;2.23;1.93;;;27.80;37.00;;;;;;5105796;28;20303;-72
2021/05/31 12:18:26;;;;;;;4.67;1.90;;;28.00;37.40;;;;;;5108093;28;20219;-72
2021/05/31 12:21:02;;;;;;;1.57;1.47;;;27.60;36.00;;;;;;5085749;28;20587;-72
2021/05/31 12:23:30;;;;;;;1.70;1.60;;;26.80;38.20;;;;;;5107694;28;20273;-72
2021/05/31 12:26:05;;;;;;;1.63;1.50;;;26.20;39.50;;;;;;5102930;28;20216;-71
2021/05/31 12:28:34;;;;;;;2.60;2.00;;;25.90;41.20;;;;;;5105595;28;20244;-72
2021/05/31 12:31:03;;;;;;;2.63;1.60;;;25.90;39.00;;;;;;5107276;28;20529;-72
2021/05/31 12:33:30;;;;;;;1.67;1.57;;;26.10;38.70;;;;;;5103525;28;20228;-72
2021/05/31 12:36:03;;;;;;;2.63;1.70;;;26.40;38.00;;;;;;5100291;28;20299;-72
2021/05/31 12:38:30;;;;;;;3.23;1.60;;;26.50;38.60;;;;;;5107390;28;20208;-72
2021/05/31 12:40:59;;;;;;;2.70;1.50;;;26.50;37.40;;;;;;5109038;28;20236;-72
2021/05/31 12:43:34;;;;;;;2.17;1.47;;;26.50;38.50;;;;;;5088774;28;20291;-72
2021/05/31 12:46:02;;;;;;;2.90;1.70;;;26.50;38.40;;;;;;5108265;28;20216;-72
2021/05/31 12:48:33;;;;;;;1.43;1.33;;;26.60;38.80;;;;;;5105264;28;20213;-72
2021/05/31 12:51:12;;;;;;;1.77;1.47;;;26.60;38.50;;;;;;5103155;28;20229;-72
2021/05/31 12:53:42;;;;;;;1.77;1.67;;;26.70;38.20;;;;;;5098606;28;20201;-72
2021/05/31 12:56:10;;;;;;;1.80;1.60;;;26.50;38.50;;;;;;5104930;28;20204;-71
2021/05/31 12:59:05;;;;;;;3.30;1.40;;;26.30;39.20;;;;;;5102288;28;20237;-72
2021/05/31 13:01:33;;;;;;;1.80;1.70;;;26.10;37.90;;;;;;5188385;22;20218;-84
2021/05/31 13:04:01;;;;;;;2.13;1.90;;;26.00;38.70;;;;;;5060125;28;20287;-82
2021/05/31 13:06:37;;;;;;;3.37;1.50;;;26.10;38.20;;;;;;5061284;28;20217;-86
2021/05/31 13:09:06;;;;;;;3.70;1.60;;;26.20;38.10;;;;;;5063636;28;20574;-83
2021/05/31 13:11:43;;;;;;;4.03;1.70;;;26.30;38.10;;;;;;5019398;28;20712;-82
2021/05/31 13:14:16;;;;;;;1.53;1.43;;;26.40;38.20;;;;;;5019684;28;20210;-84